Terminal Aerodrome Forecast
Issued by NWS Shreveport, LA

Home | Current Version | Previous Version | Text Only | Print | Product List | Glossary On
Versions: 1 2 3 4 5 6 7 8 9 10 11 12 13 14
000
FTUS44 KSHV 301100
TAFLFK
TAF
KLFK 301121Z 3012/3112 14005KT P6SM VCSH BKN015 OVC050
      TEMPO 3014/3018 3SM -TSRA BR BKN025CB
     FM301800 15007KT P6SM VCTS BKN040CB
     FM310000 15005KT P6SM BKN040
     FM310500 15005KT P6SM BKN015=

USA.gov is the U.S. government's official web portal to all federal, state and local government web resources and services.